sensor_id;sensor_type;location;lat;lon;timestamp;P1;durP1;ratioP1;P2;durP2;ratioP2
17614;SDS011;8926;49.720;6.576;2023-04-24T00:02:24;0.30;;;0.23;;
17614;SDS011;8926;49.720;6.576;2023-04-24T00:04:50;0.30;;;0.30;;
17614;SDS011;8926;49.720;6.576;2023-04-24T00:07:16;0.23;;;0.23;;
17614;SDS011;8926;49.720;6.576;2023-04-24T00:09:42;0.20;;;0.20;;
17614;SDS011;8926;49.720;6.576;2023-04-24T00:12:08;0.10;;;0.10;;
17614;SDS011;8926;49.720;6.576;2023-04-24T00:14:33;0.20;;;0.20;;
17614;SDS011;8926;49.720;6.576;2023-04-24T00:17:00;0.30;;;0.30;;
17614;SDS011;8926;49.720;6.576;2023-04-24T00:19:26;0.20;;;0.20;;
17614;SDS011;8926;49.720;6.576;2023-04-24T00:21:51;0.20;;;0.20;;
17614;SDS011;8926;49.720;6.576;2023-04-24T00:24:17;0.40;;;0.40;;
17614;SDS011;8926;49.720;6.576;2023-04-24T00:26:43;0.20;;;0.20;;
17614;SDS011;8926;49.720;6.576;2023-04-24T00:29:08;0.47;;;0.30;;
17614;SDS011;8926;49.720;6.576;2023-04-24T00:31:33;0.40;;;0.40;;
17614;SDS011;8926;49.720;6.576;2023-04-24T00:34:02;0.30;;;0.30;;
17614;SDS011;8926;49.720;6.576;2023-04-24T00:36:28;0.20;;;0.20;;
17614;SDS011;8926;49.720;6.576;2023-04-24T00:38:54;0.40;;;0.30;;
17614;SDS011;8926;49.720;6.576;2023-04-24T00:41:20;0.30;;;0.30;;
17614;SDS011;8926;49.720;6.576;2023-04-24T00:43:46;0.30;;;0.30;;
17614;SDS011;8926;49.720;6.576;2023-04-24T00:46:11;0.40;;;0.40;;
17614;SDS011;8926;49.720;6.576;2023-04-24T00:48:38;0.30;;;0.30;;
17614;SDS011;8926;49.720;6.576;2023-04-24T00:51:04;0.57;;;0.57;;
17614;SDS011;8926;49.720;6.576;2023-04-24T00:53:29;0.70;;;0.70;;
17614;SDS011;8926;49.720;6.576;2023-04-24T00:55:55;1.17;;;0.60;;
17614;SDS011;8926;49.720;6.576;2023-04-24T00:58:21;0.73;;;0.60;;
17614;SDS011;8926;49.720;6.576;2023-04-24T01:00:47;0.60;;;0.60;;
17614;SDS011;8926;49.720;6.576;2023-04-24T01:03:15;0.87;;;0.70;;
17614;SDS011;8926;49.720;6.576;2023-04-24T01:05:41;0.90;;;0.90;;
17614;SDS011;8926;49.720;6.576;2023-04-24T01:08:07;1.00;;;1.00;;
17614;SDS011;8926;49.720;6.576;2023-04-24T01:10:39;1.23;;;1.00;;
17614;SDS011;8926;49.720;6.576;2023-04-24T01:13:05;1.07;;;1.07;;
17614;SDS011;8926;49.720;6.576;2023-04-24T01:15:33;1.10;;;1.10;;
17614;SDS011;8926;49.720;6.576;2023-04-24T01:17:58;1.00;;;1.00;;
17614;SDS011;8926;49.720;6.576;2023-04-24T01:20:23;1.10;;;1.10;;
17614;SDS011;8926;49.720;6.576;2023-04-24T01:22:51;1.10;;;1.10;;
17614;SDS011;8926;49.720;6.576;2023-04-24T01:25:16;1.30;;;1.30;;
17614;SDS011;8926;49.720;6.576;2023-04-24T01:27:42;1.50;;;1.40;;
17614;SDS011;8926;49.720;6.576;2023-04-24T01:30:07;1.17;;;1.17;;
17614;SDS011;8926;49.720;6.576;2023-04-24T01:32:34;1.20;;;1.20;;
17614;SDS011;8926;49.720;6.576;2023-04-24T01:35:00;1.30;;;1.30;;
17614;SDS011;8926;49.720;6.576;2023-04-24T01:37:26;1.20;;;1.20;;
17614;SDS011;8926;49.720;6.576;2023-04-24T01:39:51;1.67;;;1.57;;
17614;SDS011;8926;49.720;6.576;2023-04-24T01:42:17;1.27;;;1.27;;
17614;SDS011;8926;49.720;6.576;2023-04-24T01:44:42;1.20;;;1.10;;
17614;SDS011;8926;49.720;6.576;2023-04-24T01:47:08;0.90;;;0.90;;
17614;SDS011;8926;49.720;6.576;2023-04-24T01:49:34;1.10;;;1.10;;
17614;SDS011;8926;49.720;6.576;2023-04-24T01:51:59;1.10;;;1.10;;
17614;SDS011;8926;49.720;6.576;2023-04-24T01:54:24;0.90;;;0.90;;
17614;SDS011;8926;49.720;6.576;2023-04-24T01:56:50;0.90;;;0.90;;
17614;SDS011;8926;49.720;6.576;2023-04-24T01:59:16;1.30;;;1.30;;
17614;SDS011;8926;49.720;6.576;2023-04-24T02:01:42;1.57;;;1.47;;
17614;SDS011;8926;49.720;6.576;2023-04-24T02:04:07;1.60;;;1.50;;
17614;SDS011;8926;49.720;6.576;2023-04-24T02:06:33;1.20;;;1.20;;
17614;SDS011;8926;49.720;6.576;2023-04-24T02:08:59;1.13;;;1.10;;
17614;SDS011;8926;49.720;6.576;2023-04-24T02:11:25;1.30;;;1.30;;
17614;SDS011;8926;49.720;6.576;2023-04-24T02:13:50;1.57;;;1.50;;
17614;SDS011;8926;49.720;6.576;2023-04-24T02:16:16;1.20;;;1.20;;
17614;SDS011;8926;49.720;6.576;2023-04-24T02:18:42;1.00;;;1.00;;
17614;SDS011;8926;49.720;6.576;2023-04-24T02:21:07;1.17;;;1.17;;
17614;SDS011;8926;49.720;6.576;2023-04-24T02:23:32;1.13;;;1.13;;
17614;SDS011;8926;49.720;6.576;2023-04-24T02:25:58;1.13;;;1.13;;
17614;SDS011;8926;49.720;6.576;2023-04-24T02:28:23;1.27;;;1.27;;
17614;SDS011;8926;49.720;6.576;2023-04-24T02:30:48;1.50;;;1.40;;
17614;SDS011;8926;49.720;6.576;2023-04-24T02:33:15;1.33;;;1.33;;
17614;SDS011;8926;49.720;6.576;2023-04-24T02:35:40;1.23;;;1.23;;
17614;SDS011;8926;49.720;6.576;2023-04-24T02:38:06;1.40;;;1.40;;
17614;SDS011;8926;49.720;6.576;2023-04-24T02:40:31;1.60;;;1.50;;
17614;SDS011;8926;49.720;6.576;2023-04-24T02:42:57;1.47;;;1.47;;
17614;SDS011;8926;49.720;6.576;2023-04-24T02:45:22;1.30;;;1.30;;
17614;SDS011;8926;49.720;6.576;2023-04-24T02:47:47;1.60;;;1.50;;
17614;SDS011;8926;49.720;6.576;2023-04-24T02:50:13;1.77;;;1.67;;
17614;SDS011;8926;49.720;6.576;2023-04-24T02:52:38;1.30;;;1.20;;
17614;SDS011;8926;49.720;6.576;2023-04-24T02:55:03;1.60;;;1.50;;
17614;SDS011;8926;49.720;6.576;2023-04-24T02:57:29;1.20;;;1.20;;
17614;SDS011;8926;49.720;6.576;2023-04-24T02:59:54;1.70;;;1.60;;
17614;SDS011;8926;49.720;6.576;2023-04-24T03:02:20;1.97;;;1.73;;
17614;SDS011;8926;49.720;6.576;2023-04-24T03:04:45;1.67;;;1.60;;
17614;SDS011;8926;49.720;6.576;2023-04-24T03:07:12;1.80;;;1.70;;
17614;SDS011;8926;49.720;6.576;2023-04-24T03:09:39;1.73;;;1.63;;
17614;SDS011;8926;49.720;6.576;2023-04-24T03:12:05;2.17;;;2.07;;
17614;SDS011;8926;49.720;6.576;2023-04-24T03:14:30;1.90;;;1.80;;
17614;SDS011;8926;49.720;6.576;2023-04-24T03:16:56;2.00;;;1.90;;
17614;SDS011;8926;49.720;6.576;2023-04-24T03:19:21;2.20;;;2.10;;
17614;SDS011;8926;49.720;6.576;2023-04-24T03:21:47;1.77;;;1.67;;
17614;SDS011;8926;49.720;6.576;2023-04-24T03:24:12;2.10;;;2.00;;
17614;SDS011;8926;49.720;6.576;2023-04-24T03:26:37;1.50;;;1.50;;
17614;SDS011;8926;49.720;6.576;2023-04-24T03:29:03;1.80;;;1.70;;
17614;SDS011;8926;49.720;6.576;2023-04-24T03:31:28;1.50;;;1.40;;
17614;SDS011;8926;49.720;6.576;2023-04-24T03:33:53;1.83;;;1.73;;
17614;SDS011;8926;49.720;6.576;2023-04-24T03:36:18;1.70;;;1.60;;
17614;SDS011;8926;49.720;6.576;2023-04-24T03:38:44;1.57;;;1.47;;
17614;SDS011;8926;49.720;6.576;2023-04-24T03:41:10;1.80;;;1.70;;
17614;SDS011;8926;49.720;6.576;2023-04-24T03:43:35;2.20;;;2.10;;
17614;SDS011;8926;49.720;6.576;2023-04-24T03:46:00;2.60;;;2.50;;
17614;SDS011;8926;49.720;6.576;2023-04-24T03:48:26;3.27;;;3.07;;
17614;SDS011;8926;49.720;6.576;2023-04-24T03:50:51;2.73;;;2.63;;
17614;SDS011;8926;49.720;6.576;2023-04-24T03:53:16;2.57;;;2.40;;
17614;SDS011;8926;49.720;6.576;2023-04-24T03:55:42;2.17;;;2.07;;
17614;SDS011;8926;49.720;6.576;2023-04-24T03:58:07;4.27;;;3.97;;
17614;SDS011;8926;49.720;6.576;2023-04-24T04:00:32;2.93;;;2.73;;
17614;SDS011;8926;49.720;6.576;2023-04-24T04:02:58;2.60;;;2.50;;
17614;SDS011;8926;49.720;6.576;2023-04-24T04:05:23;2.40;;;2.30;;
17614;SDS011;8926;49.720;6.576;2023-04-24T04:07:49;2.50;;;2.30;;
17614;SDS011;8926;49.720;6.576;2023-04-24T04:10:14;2.60;;;2.50;;
17614;SDS011;8926;49.720;6.576;2023-04-24T04:12:39;2.50;;;2.30;;
17614;SDS011;8926;49.720;6.576;2023-04-24T04:15:05;3.80;;;3.60;;
17614;SDS011;8926;49.720;6.576;2023-04-24T04:17:31;3.50;;;3.33;;
17614;SDS011;8926;49.720;6.576;2023-04-24T04:19:57;4.90;;;4.40;;
17614;SDS011;8926;49.720;6.576;2023-04-24T04:22:22;5.73;;;5.33;;
17614;SDS011;8926;49.720;6.576;2023-04-24T04:24:47;5.03;;;4.73;;
17614;SDS011;8926;49.720;6.576;2023-04-24T04:27:13;5.17;;;4.87;;
17614;SDS011;8926;49.720;6.576;2023-04-24T04:29:38;4.73;;;4.30;;
17614;SDS011;8926;49.720;6.576;2023-04-24T04:32:04;5.40;;;5.00;;
17614;SDS011;8926;49.720;6.576;2023-04-24T04:34:31;4.90;;;4.50;;
17614;SDS011;8926;49.720;6.576;2023-04-24T04:36:56;4.30;;;4.10;;
17614;SDS011;8926;49.720;6.576;2023-04-24T04:39:24;4.40;;;4.10;;
17614;SDS011;8926;49.720;6.576;2023-04-24T04:41:49;3.60;;;3.40;;
17614;SDS011;8926;49.720;6.576;2023-04-24T04:44:15;5.67;;;5.33;;
17614;SDS011;8926;49.720;6.576;2023-04-24T04:46:41;4.40;;;4.20;;
17614;SDS011;8926;49.720;6.576;2023-04-24T04:49:07;4.73;;;4.43;;
17614;SDS011;8926;49.720;6.576;2023-04-24T04:51:33;4.70;;;4.40;;
17614;SDS011;8926;49.720;6.576;2023-04-24T04:53:59;4.07;;;3.87;;
17614;SDS011;8926;49.720;6.576;2023-04-24T04:56:25;3.70;;;3.40;;
17614;SDS011;8926;49.720;6.576;2023-04-24T04:58:50;3.23;;;3.03;;
17614;SDS011;8926;49.720;6.576;2023-04-24T05:01:15;3.60;;;3.40;;
17614;SDS011;8926;49.720;6.576;2023-04-24T05:03:41;4.07;;;3.77;;
17614;SDS011;8926;49.720;6.576;2023-04-24T05:06:06;4.47;;;4.10;;
17614;SDS011;8926;49.720;6.576;2023-04-24T05:08:32;4.37;;;4.07;;
17614;SDS011;8926;49.720;6.576;2023-04-24T05:10:57;3.30;;;3.10;;
17614;SDS011;8926;49.720;6.576;2023-04-24T05:13:22;3.80;;;3.60;;
17614;SDS011;8926;49.720;6.576;2023-04-24T05:15:47;3.93;;;3.63;;
17614;SDS011;8926;49.720;6.576;2023-04-24T05:18:13;3.10;;;2.90;;
17614;SDS011;8926;49.720;6.576;2023-04-24T05:20:38;3.80;;;3.50;;
17614;SDS011;8926;49.720;6.576;2023-04-24T05:23:04;3.23;;;3.03;;
17614;SDS011;8926;49.720;6.576;2023-04-24T05:25:29;3.60;;;3.40;;
17614;SDS011;8926;49.720;6.576;2023-04-24T05:27:57;3.13;;;2.93;;
17614;SDS011;8926;49.720;6.576;2023-04-24T05:30:22;3.30;;;3.10;;
17614;SDS011;8926;49.720;6.576;2023-04-24T05:32:47;2.90;;;2.70;;
17614;SDS011;8926;49.720;6.576;2023-04-24T05:35:12;3.33;;;3.03;;
17614;SDS011;8926;49.720;6.576;2023-04-24T05:37:38;5.67;;;4.57;;
17614;SDS011;8926;49.720;6.576;2023-04-24T05:40:03;3.90;;;3.60;;
17614;SDS011;8926;49.720;6.576;2023-04-24T05:42:30;4.00;;;3.70;;
17614;SDS011;8926;49.720;6.576;2023-04-24T05:44:56;3.67;;;3.47;;
17614;SDS011;8926;49.720;6.576;2023-04-24T05:47:21;4.30;;;4.00;;
17614;SDS011;8926;49.720;6.576;2023-04-24T05:49:47;3.73;;;3.40;;
17614;SDS011;8926;49.720;6.576;2023-04-24T05:52:12;2.63;;;2.53;;
17614;SDS011;8926;49.720;6.576;2023-04-24T05:54:37;3.23;;;3.03;;
17614;SDS011;8926;49.720;6.576;2023-04-24T05:57:03;4.00;;;3.70;;
17614;SDS011;8926;49.720;6.576;2023-04-24T05:59:32;7.97;;;6.63;;
17614;SDS011;8926;49.720;6.576;2023-04-24T06:01:58;10.47;;;6.80;;
17614;SDS011;8926;49.720;6.576;2023-04-24T06:04:23;12.23;;;6.80;;
17614;SDS011;8926;49.720;6.576;2023-04-24T06:06:48;5.57;;;4.30;;
17614;SDS011;8926;49.720;6.576;2023-04-24T06:09:16;6.63;;;5.93;;
17614;SDS011;8926;49.720;6.576;2023-04-24T06:11:42;6.10;;;5.50;;
17614;SDS011;8926;49.720;6.576;2023-04-24T06:14:08;6.90;;;6.20;;
17614;SDS011;8926;49.720;6.576;2023-04-24T06:16:33;6.57;;;5.70;;
17614;SDS011;8926;49.720;6.576;2023-04-24T06:18:58;5.77;;;5.17;;
17614;SDS011;8926;49.720;6.576;2023-04-24T06:21:24;6.70;;;6.10;;
17614;SDS011;8926;49.720;6.576;2023-04-24T06:23:49;11.13;;;8.73;;
17614;SDS011;8926;49.720;6.576;2023-04-24T06:26:14;8.03;;;7.20;;
17614;SDS011;8926;49.720;6.576;2023-04-24T06:28:40;4.57;;;4.27;;
17614;SDS011;8926;49.720;6.576;2023-04-24T06:31:05;4.80;;;4.40;;
17614;SDS011;8926;49.720;6.576;2023-04-24T06:33:30;5.73;;;5.10;;
17614;SDS011;8926;49.720;6.576;2023-04-24T06:35:56;4.20;;;3.80;;
17614;SDS011;8926;49.720;6.576;2023-04-24T06:38:21;4.00;;;3.80;;
17614;SDS011;8926;49.720;6.576;2023-04-24T06:40:46;3.70;;;3.50;;
17614;SDS011;8926;49.720;6.576;2023-04-24T06:43:11;5.07;;;4.57;;
17614;SDS011;8926;49.720;6.576;2023-04-24T06:45:37;5.23;;;4.83;;
17614;SDS011;8926;49.720;6.576;2023-04-24T06:48:04;4.50;;;4.20;;
17614;SDS011;8926;49.720;6.576;2023-04-24T06:50:30;4.87;;;4.47;;
17614;SDS011;8926;49.720;6.576;2023-04-24T06:52:55;4.23;;;3.73;;
17614;SDS011;8926;49.720;6.576;2023-04-24T06:55:21;4.33;;;4.03;;
17614;SDS011;8926;49.720;6.576;2023-04-24T06:57:46;3.80;;;3.60;;
17614;SDS011;8926;49.720;6.576;2023-04-24T07:00:11;4.50;;;4.20;;
17614;SDS011;8926;49.720;6.576;2023-04-24T07:02:37;4.97;;;4.53;;
17614;SDS011;8926;49.720;6.576;2023-04-24T07:05:03;4.03;;;3.80;;
17614;SDS011;8926;49.720;6.576;2023-04-24T07:07:29;4.63;;;4.33;;
17614;SDS011;8926;49.720;6.576;2023-04-24T07:09:55;4.97;;;4.60;;
17614;SDS011;8926;49.720;6.576;2023-04-24T07:12:21;4.57;;;4.17;;
17614;SDS011;8926;49.720;6.576;2023-04-24T07:14:47;4.80;;;4.50;;
17614;SDS011;8926;49.720;6.576;2023-04-24T07:17:13;5.20;;;4.80;;
17614;SDS011;8926;49.720;6.576;2023-04-24T07:19:38;5.57;;;5.10;;
17614;SDS011;8926;49.720;6.576;2023-04-24T07:22:03;5.73;;;5.20;;
17614;SDS011;8926;49.720;6.576;2023-04-24T07:24:29;5.00;;;4.70;;
17614;SDS011;8926;49.720;6.576;2023-04-24T07:26:57;5.67;;;5.27;;
17614;SDS011;8926;49.720;6.576;2023-04-24T07:29:22;5.10;;;4.70;;
17614;SDS011;8926;49.720;6.576;2023-04-24T07:31:47;6.37;;;5.87;;
17614;SDS011;8926;49.720;6.576;2023-04-24T07:34:13;6.47;;;5.97;;
17614;SDS011;8926;49.720;6.576;2023-04-24T07:36:38;5.57;;;5.27;;
17614;SDS011;8926;49.720;6.576;2023-04-24T07:39:06;5.07;;;4.67;;
17614;SDS011;8926;49.720;6.576;2023-04-24T07:41:33;5.17;;;4.80;;
17614;SDS011;8926;49.720;6.576;2023-04-24T07:43:58;12.03;;;11.03;;
17614;SDS011;8926;49.720;6.576;2023-04-24T07:46:24;7.07;;;6.57;;
17614;SDS011;8926;49.720;6.576;2023-04-24T07:48:49;6.27;;;5.77;;
17614;SDS011;8926;49.720;6.576;2023-04-24T07:51:15;4.93;;;4.63;;
17614;SDS011;8926;49.720;6.576;2023-04-24T07:53:40;5.53;;;5.13;;
17614;SDS011;8926;49.720;6.576;2023-04-24T07:56:06;6.27;;;5.77;;
17614;SDS011;8926;49.720;6.576;2023-04-24T07:58:32;6.00;;;5.60;;
17614;SDS011;8926;49.720;6.576;2023-04-24T08:00:57;6.53;;;6.03;;
17614;SDS011;8926;49.720;6.576;2023-04-24T08:03:23;6.47;;;6.00;;
17614;SDS011;8926;49.720;6.576;2023-04-24T08:05:49;7.80;;;7.20;;
17614;SDS011;8926;49.720;6.576;2023-04-24T08:08:15;5.80;;;5.40;;
17614;SDS011;8926;49.720;6.576;2023-04-24T08:10:41;5.40;;;5.00;;
17614;SDS011;8926;49.720;6.576;2023-04-24T08:13:06;6.60;;;6.00;;
17614;SDS011;8926;49.720;6.576;2023-04-24T08:15:32;5.60;;;5.20;;
17614;SDS011;8926;49.720;6.576;2023-04-24T08:17:57;5.53;;;5.13;;
17614;SDS011;8926;49.720;6.576;2023-04-24T08:20:22;5.67;;;5.37;;
17614;SDS011;8926;49.720;6.576;2023-04-24T08:22:48;6.40;;;5.90;;
17614;SDS011;8926;49.720;6.576;2023-04-24T08:25:13;5.10;;;4.80;;
17614;SDS011;8926;49.720;6.576;2023-04-24T08:27:39;5.13;;;4.73;;
17614;SDS011;8926;49.720;6.576;2023-04-24T08:30:04;6.70;;;6.20;;
17614;SDS011;8926;49.720;6.576;2023-04-24T08:32:30;9.00;;;8.10;;
17614;SDS011;8926;49.720;6.576;2023-04-24T08:34:56;9.50;;;8.70;;
17614;SDS011;8926;49.720;6.576;2023-04-24T08:37:22;5.57;;;5.17;;
17614;SDS011;8926;49.720;6.576;2023-04-24T08:39:48;5.10;;;4.70;;
17614;SDS011;8926;49.720;6.576;2023-04-24T08:42:14;5.77;;;5.23;;
17614;SDS011;8926;49.720;6.576;2023-04-24T08:44:41;4.80;;;4.50;;
17614;SDS011;8926;49.720;6.576;2023-04-24T08:47:07;5.47;;;4.90;;
17614;SDS011;8926;49.720;6.576;2023-04-24T08:49:33;5.37;;;4.97;;
17614;SDS011;8926;49.720;6.576;2023-04-24T08:51:58;5.03;;;4.53;;
17614;SDS011;8926;49.720;6.576;2023-04-24T08:54:25;5.70;;;5.20;;
17614;SDS011;8926;49.720;6.576;2023-04-24T08:56:50;6.30;;;5.80;;
17614;SDS011;8926;49.720;6.576;2023-04-24T08:59:19;6.93;;;6.23;;
17614;SDS011;8926;49.720;6.576;2023-04-24T09:01:46;5.90;;;5.40;;
17614;SDS011;8926;49.720;6.576;2023-04-24T09:04:14;7.20;;;6.70;;
17614;SDS011;8926;49.720;6.576;2023-04-24T09:06:41;5.70;;;5.20;;
17614;SDS011;8926;49.720;6.576;2023-04-24T09:09:07;5.67;;;5.27;;
17614;SDS011;8926;49.720;6.576;2023-04-24T09:11:34;5.13;;;4.73;;
17614;SDS011;8926;49.720;6.576;2023-04-24T09:14:01;8.40;;;7.60;;
17614;SDS011;8926;49.720;6.576;2023-04-24T09:16:26;8.60;;;7.90;;
17614;SDS011;8926;49.720;6.576;2023-04-24T09:18:52;6.90;;;6.40;;
17614;SDS011;8926;49.720;6.576;2023-04-24T09:21:20;6.60;;;6.00;;
17614;SDS011;8926;49.720;6.576;2023-04-24T09:23:47;5.93;;;5.53;;
17614;SDS011;8926;49.720;6.576;2023-04-24T09:26:22;4.90;;;4.50;;
17614;SDS011;8926;49.720;6.576;2023-04-24T09:28:47;3.83;;;3.63;;
17614;SDS011;8926;49.720;6.576;2023-04-24T09:31:13;5.60;;;5.20;;
17614;SDS011;8926;49.720;6.576;2023-04-24T09:33:53;4.97;;;4.57;;
17614;SDS011;8926;49.720;6.576;2023-04-24T09:36:28;4.10;;;3.80;;
17614;SDS011;8926;49.720;6.576;2023-04-24T09:39:02;4.80;;;4.50;;
17614;SDS011;8926;49.720;6.576;2023-04-24T09:41:31;4.67;;;4.37;;
17614;SDS011;8926;49.720;6.576;2023-04-24T09:43:58;4.00;;;3.70;;
17614;SDS011;8926;49.720;6.576;2023-04-24T09:46:36;3.40;;;3.20;;
17614;SDS011;8926;49.720;6.576;2023-04-24T09:49:15;2.80;;;2.70;;
17614;SDS011;8926;49.720;6.576;2023-04-24T09:51:41;2.87;;;2.70;;
17614;SDS011;8926;49.720;6.576;2023-04-24T09:54:13;2.70;;;2.60;;
17614;SDS011;8926;49.720;6.576;2023-04-24T09:56:44;2.57;;;2.47;;
17614;SDS011;8926;49.720;6.576;2023-04-24T09:59:11;2.37;;;2.27;;
17614;SDS011;8926;49.720;6.576;2023-04-24T10:01:37;2.20;;;2.10;;
17614;SDS011;8926;49.720;6.576;2023-04-24T10:04:03;2.20;;;2.10;;
17614;SDS011;8926;49.720;6.576;2023-04-24T10:06:35;2.97;;;2.77;;
17614;SDS011;8926;49.720;6.576;2023-04-24T10:09:00;3.20;;;3.00;;
17614;SDS011;8926;49.720;6.576;2023-04-24T10:11:26;3.13;;;2.90;;
17614;SDS011;8926;49.720;6.576;2023-04-24T10:13:52;2.73;;;2.53;;
17614;SDS011;8926;49.720;6.576;2023-04-24T10:16:18;2.47;;;2.37;;
17614;SDS011;8926;49.720;6.576;2023-04-24T10:18:46;3.30;;;3.00;;
17614;SDS011;8926;49.720;6.576;2023-04-24T10:21:13;2.30;;;2.20;;
17614;SDS011;8926;49.720;6.576;2023-04-24T10:23:39;3.80;;;3.50;;
17614;SDS011;8926;49.720;6.576;2023-04-24T10:26:06;4.07;;;3.87;;
17614;SDS011;8926;49.720;6.576;2023-04-24T10:28:33;5.13;;;4.73;;
17614;SDS011;8926;49.720;6.576;2023-04-24T10:30:59;4.33;;;4.03;;
17614;SDS011;8926;49.720;6.576;2023-04-24T10:33:25;5.47;;;5.07;;
17614;SDS011;8926;49.720;6.576;2023-04-24T10:35:51;3.17;;;2.97;;
17614;SDS011;8926;49.720;6.576;2023-04-24T10:38:18;2.90;;;2.80;;
17614;SDS011;8926;49.720;6.576;2023-04-24T10:40:49;3.10;;;2.90;;
17614;SDS011;8926;49.720;6.576;2023-04-24T10:43:16;3.30;;;3.10;;
17614;SDS011;8926;49.720;6.576;2023-04-24T10:45:42;3.90;;;3.70;;
17614;SDS011;8926;49.720;6.576;2023-04-24T10:48:26;3.00;;;2.80;;
17614;SDS011;8926;49.720;6.576;2023-04-24T10:50:52;2.40;;;2.30;;
17614;SDS011;8926;49.720;6.576;2023-04-24T10:53:19;2.70;;;2.50;;
17614;SDS011;8926;49.720;6.576;2023-04-24T10:56:04;2.70;;;2.50;;
17614;SDS011;8926;49.720;6.576;2023-04-24T10:58:41;3.10;;;2.90;;
17614;SDS011;8926;49.720;6.576;2023-04-24T11:03:58;2.80;;;2.50;;
17614;SDS011;8926;49.720;6.576;2023-04-24T11:06:28;1.87;;;1.77;;
17614;SDS011;8926;49.720;6.576;2023-04-24T11:08:59;1.90;;;1.80;;
17614;SDS011;8926;49.720;6.576;2023-04-24T11:11:31;2.63;;;2.53;;
17614;SDS011;8926;49.720;6.576;2023-04-24T11:18:51;3.33;;;3.03;;
17614;SDS011;8926;49.720;6.576;2023-04-24T11:21:24;3.00;;;2.80;;
17614;SDS011;8926;49.720;6.576;2023-04-24T11:23:50;4.17;;;3.77;;
17614;SDS011;8926;49.720;6.576;2023-04-24T11:26:19;4.33;;;3.93;;
17614;SDS011;8926;49.720;6.576;2023-04-24T11:28:49;4.10;;;3.80;;
17614;SDS011;8926;49.720;6.576;2023-04-24T11:34:19;3.53;;;3.27;;
17614;SDS011;8926;49.720;6.576;2023-04-24T11:36:45;2.93;;;2.73;;
17614;SDS011;8926;49.720;6.576;2023-04-24T11:39:12;3.30;;;3.10;;
17614;SDS011;8926;49.720;6.576;2023-04-24T11:41:38;3.03;;;2.83;;
17614;SDS011;8926;49.720;6.576;2023-04-24T11:44:05;4.30;;;4.00;;
17614;SDS011;8926;49.720;6.576;2023-04-24T11:46:34;3.60;;;3.30;;
17614;SDS011;8926;49.720;6.576;2023-04-24T11:48:59;4.47;;;3.80;;
17614;SDS011;8926;49.720;6.576;2023-04-24T11:51:25;4.37;;;4.07;;
17614;SDS011;8926;49.720;6.576;2023-04-24T11:53:55;5.20;;;4.83;;
17614;SDS011;8926;49.720;6.576;2023-04-24T11:56:21;5.77;;;5.27;;
17614;SDS011;8926;49.720;6.576;2023-04-24T11:58:48;5.43;;;4.93;;
17614;SDS011;8926;49.720;6.576;2023-04-24T12:01:16;5.13;;;4.73;;
17614;SDS011;8926;49.720;6.576;2023-04-24T12:03:46;4.47;;;4.17;;
17614;SDS011;8926;49.720;6.576;2023-04-24T12:06:12;5.40;;;5.00;;
17614;SDS011;8926;49.720;6.576;2023-04-24T12:08:38;4.50;;;4.10;;
17614;SDS011;8926;49.720;6.576;2023-04-24T12:11:04;4.43;;;4.13;;
17614;SDS011;8926;49.720;6.576;2023-04-24T12:13:32;4.00;;;3.70;;
17614;SDS011;8926;49.720;6.576;2023-04-24T12:15:58;6.17;;;4.47;;
17614;SDS011;8926;49.720;6.576;2023-04-24T12:18:23;4.60;;;4.10;;
17614;SDS011;8926;49.720;6.576;2023-04-24T12:20:49;4.63;;;4.33;;
17614;SDS011;8926;49.720;6.576;2023-04-24T12:23:14;4.20;;;3.90;;
17614;SDS011;8926;49.720;6.576;2023-04-24T12:25:40;5.03;;;4.53;;
17614;SDS011;8926;49.720;6.576;2023-04-24T12:30:32;5.10;;;4.70;;
17614;SDS011;8926;49.720;6.576;2023-04-24T12:32:59;4.90;;;4.60;;
17614;SDS011;8926;49.720;6.576;2023-04-24T12:35:29;5.27;;;4.77;;
17614;SDS011;8926;49.720;6.576;2023-04-24T12:38:07;3.80;;;3.50;;
17614;SDS011;8926;49.720;6.576;2023-04-24T12:40:33;5.87;;;5.47;;
17614;SDS011;8926;49.720;6.576;2023-04-24T12:42:59;6.17;;;5.57;;
17614;SDS011;8926;49.720;6.576;2023-04-24T12:45:24;4.40;;;4.00;;
17614;SDS011;8926;49.720;6.576;2023-04-24T12:47:50;4.43;;;4.03;;
17614;SDS011;8926;49.720;6.576;2023-04-24T12:50:15;4.80;;;4.07;;
17614;SDS011;8926;49.720;6.576;2023-04-24T12:52:41;4.93;;;4.47;;
17614;SDS011;8926;49.720;6.576;2023-04-24T12:55:08;4.20;;;3.90;;
17614;SDS011;8926;49.720;6.576;2023-04-24T12:57:34;4.00;;;3.70;;
17614;SDS011;8926;49.720;6.576;2023-04-24T13:00:00;3.00;;;2.80;;
17614;SDS011;8926;49.720;6.576;2023-04-24T13:02:29;3.73;;;3.50;;
17614;SDS011;8926;49.720;6.576;2023-04-24T13:04:56;4.30;;;4.00;;
17614;SDS011;8926;49.720;6.576;2023-04-24T13:07:22;3.80;;;3.10;;
17614;SDS011;8926;49.720;6.576;2023-04-24T13:09:48;3.70;;;3.40;;
17614;SDS011;8926;49.720;6.576;2023-04-24T13:12:14;4.23;;;3.93;;
17614;SDS011;8926;49.720;6.576;2023-04-24T13:14:40;4.37;;;4.03;;
17614;SDS011;8926;49.720;6.576;2023-04-24T13:17:06;4.03;;;3.73;;
17614;SDS011;8926;49.720;6.576;2023-04-24T13:19:35;3.90;;;3.60;;
17614;SDS011;8926;49.720;6.576;2023-04-24T13:22:02;2.90;;;2.70;;
17614;SDS011;8926;49.720;6.576;2023-04-24T13:24:27;4.03;;;3.63;;
17614;SDS011;8926;49.720;6.576;2023-04-24T13:26:52;4.27;;;3.97;;
17614;SDS011;8926;49.720;6.576;2023-04-24T13:29:18;4.80;;;3.77;;
17614;SDS011;8926;49.720;6.576;2023-04-24T13:31:44;4.23;;;3.93;;
17614;SDS011;8926;49.720;6.576;2023-04-24T13:34:10;3.93;;;3.70;;
17614;SDS011;8926;49.720;6.576;2023-04-24T13:36:36;3.80;;;3.50;;
17614;SDS011;8926;49.720;6.576;2023-04-24T13:39:02;3.60;;;3.40;;
17614;SDS011;8926;49.720;6.576;2023-04-24T13:41:29;3.60;;;3.30;;
17614;SDS011;8926;49.720;6.576;2023-04-24T13:43:55;3.87;;;3.53;;
17614;SDS011;8926;49.720;6.576;2023-04-24T13:46:20;2.60;;;2.40;;
17614;SDS011;8926;49.720;6.576;2023-04-24T13:48:45;2.43;;;2.33;;
17614;SDS011;8926;49.720;6.576;2023-04-24T13:51:11;4.50;;;4.10;;
17614;SDS011;8926;49.720;6.576;2023-04-24T13:53:36;4.30;;;3.87;;
17614;SDS011;8926;49.720;6.576;2023-04-24T13:56:03;4.27;;;3.87;;
17614;SDS011;8926;49.720;6.576;2023-04-24T13:58:28;4.27;;;3.97;;
17614;SDS011;8926;49.720;6.576;2023-04-24T14:00:54;5.57;;;5.07;;
17614;SDS011;8926;49.720;6.576;2023-04-24T14:03:20;3.93;;;3.73;;
17614;SDS011;8926;49.720;6.576;2023-04-24T14:05:45;4.07;;;3.77;;
17614;SDS011;8926;49.720;6.576;2023-04-24T14:08:10;6.03;;;5.53;;
17614;SDS011;8926;49.720;6.576;2023-04-24T14:10:36;4.70;;;4.37;;
17614;SDS011;8926;49.720;6.576;2023-04-24T14:13:01;4.40;;;4.00;;
17614;SDS011;8926;49.720;6.576;2023-04-24T14:15:27;5.83;;;5.43;;
17614;SDS011;8926;49.720;6.576;2023-04-24T14:17:52;5.50;;;4.97;;
17614;SDS011;8926;49.720;6.576;2023-04-24T14:20:18;4.57;;;4.17;;
17614;SDS011;8926;49.720;6.576;2023-04-24T14:22:43;4.90;;;4.60;;
17614;SDS011;8926;49.720;6.576;2023-04-24T14:25:09;5.00;;;4.60;;
17614;SDS011;8926;49.720;6.576;2023-04-24T14:27:34;5.27;;;4.80;;
17614;SDS011;8926;49.720;6.576;2023-04-24T14:30:00;5.10;;;4.70;;
17614;SDS011;8926;49.720;6.576;2023-04-24T14:32:26;5.07;;;4.67;;
17614;SDS011;8926;49.720;6.576;2023-04-24T14:34:51;4.77;;;4.37;;
17614;SDS011;8926;49.720;6.576;2023-04-24T14:37:16;5.13;;;4.67;;
17614;SDS011;8926;49.720;6.576;2023-04-24T14:39:41;5.33;;;4.93;;
17614;SDS011;8926;49.720;6.576;2023-04-24T14:42:07;6.07;;;5.57;;
17614;SDS011;8926;49.720;6.576;2023-04-24T14:44:32;4.60;;;4.17;;
17614;SDS011;8926;49.720;6.576;2023-04-24T14:46:58;4.43;;;4.13;;
17614;SDS011;8926;49.720;6.576;2023-04-24T14:49:23;4.90;;;4.50;;
17614;SDS011;8926;49.720;6.576;2023-04-24T14:51:52;4.57;;;4.00;;
17614;SDS011;8926;49.720;6.576;2023-04-24T14:54:17;4.30;;;4.00;;
17614;SDS011;8926;49.720;6.576;2023-04-24T14:56:42;3.90;;;3.70;;
17614;SDS011;8926;49.720;6.576;2023-04-24T14:59:09;4.20;;;3.70;;
17614;SDS011;8926;49.720;6.576;2023-04-24T15:01:35;4.60;;;4.30;;
17614;SDS011;8926;49.720;6.576;2023-04-24T15:04:00;4.20;;;3.90;;
17614;SDS011;8926;49.720;6.576;2023-04-24T15:06:26;4.43;;;4.07;;
17614;SDS011;8926;49.720;6.576;2023-04-24T15:08:51;3.90;;;3.60;;